sensor_id;sensor_type;location;lat;lon;timestamp;pressure;altitude;pressure_sealevel;temperature;humidity
74778;BME280;63298;53.164;8.610;2022-12-07T00:01:22;101516.31;;;4.38;86.99
74778;BME280;63298;53.164;8.610;2022-12-07T00:03:49;101510.34;;;4.34;87.38
74778;BME280;63298;53.164;8.610;2022-12-07T00:06:16;101512.41;;;4.32;86.37
74778;BME280;63298;53.164;8.610;2022-12-07T00:08:42;101519.63;;;4.25;86.98
74778;BME280;63298;53.164;8.610;2022-12-07T00:11:10;101518.44;;;4.20;87.02
74778;BME280;63298;53.164;8.610;2022-12-07T00:13:37;101515.72;;;4.20;87.25
74778;BME280;63298;53.164;8.610;2022-12-07T00:16:04;101519.66;;;4.17;86.65
74778;BME280;63298;53.164;8.610;2022-12-07T00:18:30;101514.38;;;4.16;86.77
74778;BME280;63298;53.164;8.610;2022-12-07T00:21:00;101504.84;;;4.12;87.07
74778;BME280;63298;53.164;8.610;2022-12-07T00:23:26;101504.38;;;4.08;87.33
74778;BME280;63298;53.164;8.610;2022-12-07T00:25:51;101509.63;;;4.10;87.29
74778;BME280;63298;53.164;8.610;2022-12-07T00:28:16;101503.16;;;4.11;87.00
74778;BME280;63298;53.164;8.610;2022-12-07T00:30:42;101509.63;;;4.10;87.05
74778;BME280;63298;53.164;8.610;2022-12-07T00:33:07;101518.50;;;4.12;87.35
74778;BME280;63298;53.164;8.610;2022-12-07T00:35:33;101508.13;;;4.07;87.69
74778;BME280;63298;53.164;8.610;2022-12-07T00:37:58;101515.41;;;4.15;86.95
74778;BME280;63298;53.164;8.610;2022-12-07T00:40:23;101504.84;;;4.12;87.51
74778;BME280;63298;53.164;8.610;2022-12-07T00:42:48;101511.66;;;4.16;87.43
74778;BME280;63298;53.164;8.610;2022-12-07T00:45:14;101503.16;;;4.11;87.92
74778;BME280;63298;53.164;8.610;2022-12-07T00:47:39;101507.59;;;4.12;87.46
74778;BME280;63298;53.164;8.610;2022-12-07T00:50:05;101510.13;;;4.13;87.12
74778;BME280;63298;53.164;8.610;2022-12-07T00:52:30;101496.50;;;4.13;87.13
74778;BME280;63298;53.164;8.610;2022-12-07T00:54:55;101500.06;;;4.14;87.47
74778;BME280;63298;53.164;8.610;2022-12-07T00:57:21;101497.81;;;4.17;87.27
74778;BME280;63298;53.164;8.610;2022-12-07T00:59:46;101498.84;;;4.16;87.32
74778;BME280;63298;53.164;8.610;2022-12-07T01:02:11;101493.22;;;4.18;87.00
74778;BME280;63298;53.164;8.610;2022-12-07T01:04:37;101496.97;;;4.17;87.08
74778;BME280;63298;53.164;8.610;2022-12-07T01:07:02;101513.34;;;4.17;86.92
74778;BME280;63298;53.164;8.610;2022-12-07T01:09:27;101516.09;;;4.17;86.91
74778;BME280;63298;53.164;8.610;2022-12-07T01:11:52;101514.91;;;4.11;87.28
74778;BME280;63298;53.164;8.610;2022-12-07T01:14:18;101511.16;;;4.12;87.66
74778;BME280;63298;53.164;8.610;2022-12-07T01:16:43;101498.19;;;4.14;87.25
74778;BME280;63298;53.164;8.610;2022-12-07T01:19:08;101478.56;;;4.11;87.63
74778;BME280;63298;53.164;8.610;2022-12-07T01:21:35;101474.13;;;4.10;87.90
74778;BME280;63298;53.164;8.610;2022-12-07T01:24:01;101481.81;;;4.14;87.13
74778;BME280;63298;53.164;8.610;2022-12-07T01:26:26;101489.09;;;4.22;87.17
74778;BME280;63298;53.164;8.610;2022-12-07T01:28:52;101486.38;;;4.22;87.30
74778;BME280;63298;53.164;8.610;2022-12-07T01:31:21;101478.19;;;4.22;87.11
74778;BME280;63298;53.164;8.610;2022-12-07T01:33:49;101486.00;;;4.25;86.77
74778;BME280;63298;53.164;8.610;2022-12-07T01:36:27;101487.38;;;4.21;86.71
74778;BME280;63298;53.164;8.610;2022-12-07T01:38:58;101487.38;;;4.21;86.43
74778;BME280;63298;53.164;8.610;2022-12-07T01:41:27;101484.81;;;4.19;86.44
74778;BME280;63298;53.164;8.610;2022-12-07T01:44:22;101486.06;;;4.17;86.58
74778;BME280;63298;53.164;8.610;2022-12-07T01:46:55;101490.66;;;4.16;86.15
74778;BME280;63298;53.164;8.610;2022-12-07T01:49:25;101488.94;;;4.15;85.77
74778;BME280;63298;53.164;8.610;2022-12-07T01:52:16;101483.38;;;4.09;86.16
74778;BME280;63298;53.164;8.610;2022-12-07T01:54:40;101485.44;;;4.07;86.27
74778;BME280;63298;53.164;8.610;2022-12-07T01:57:07;101483.72;;;4.06;86.02
74778;BME280;63298;53.164;8.610;2022-12-07T01:59:33;101481.19;;;4.04;86.04
74778;BME280;63298;53.164;8.610;2022-12-07T02:01:59;101487.84;;;4.02;85.96
74778;BME280;63298;53.164;8.610;2022-12-07T02:04:27;101489.22;;;3.98;86.17
74778;BME280;63298;53.164;8.610;2022-12-07T02:06:53;101487.22;;;3.91;85.70
74778;BME280;63298;53.164;8.610;2022-12-07T02:09:19;101484.00;;;3.88;86.03
74778;BME280;63298;53.164;8.610;2022-12-07T02:11:45;101481.59;;;3.85;85.93
74778;BME280;63298;53.164;8.610;2022-12-07T02:14:10;101477.19;;;3.84;86.13
74778;BME280;63298;53.164;8.610;2022-12-07T02:16:51;101475.66;;;3.81;86.28
74778;BME280;63298;53.164;8.610;2022-12-07T02:28:34;101470.56;;;3.78;85.97
74778;BME280;63298;53.164;8.610;2022-12-07T02:30:40;101473.28;;;3.78;86.20
74778;BME280;63298;53.164;8.610;2022-12-07T02:33:18;101467.53;;;3.73;85.91
74778;BME280;63298;53.164;8.610;2022-12-07T02:35:51;101476.56;;;3.74;85.85
74778;BME280;63298;53.164;8.610;2022-12-07T02:38:35;101482.19;;;3.72;86.02
74778;BME280;63298;53.164;8.610;2022-12-07T02:41:20;101504.69;;;3.66;86.54
74778;BME280;63298;53.164;8.610;2022-12-07T02:43:56;101498.22;;;3.67;86.40
74778;BME280;63298;53.164;8.610;2022-12-07T02:46:27;101491.25;;;3.65;86.73
74778;BME280;63298;53.164;8.610;2022-12-07T02:48:54;101501.31;;;3.64;86.82
74778;BME280;63298;53.164;8.610;2022-12-07T02:51:21;101488.34;;;3.66;87.02
74778;BME280;63298;53.164;8.610;2022-12-07T02:53:47;101485.94;;;3.71;86.80
74778;BME280;63298;53.164;8.610;2022-12-07T02:59:25;101492.56;;;3.77;87.65
74778;BME280;63298;53.164;8.610;2022-12-07T03:08:13;101478.53;;;3.88;88.12
74778;BME280;63298;53.164;8.610;2022-12-07T03:10:40;101468.78;;;3.94;87.37
74778;BME280;63298;53.164;8.610;2022-12-07T03:13:14;101470.78;;;4.00;87.32
74778;BME280;63298;53.164;8.610;2022-12-07T03:18:10;101466.50;;;4.05;86.39
74778;BME280;63298;53.164;8.610;2022-12-07T03:20:39;101468.88;;;4.08;86.89
74778;BME280;63298;53.164;8.610;2022-12-07T03:23:07;101452.28;;;4.10;86.76
74778;BME280;63298;53.164;8.610;2022-12-07T03:25:34;101454.00;;;4.11;86.70
74778;BME280;63298;53.164;8.610;2022-12-07T03:28:03;101464.63;;;4.06;88.00
74778;BME280;63298;53.164;8.610;2022-12-07T03:30:37;101468.19;;;4.06;87.14
74778;BME280;63298;53.164;8.610;2022-12-07T03:33:07;101474.81;;;4.12;87.21
74778;BME280;63298;53.164;8.610;2022-12-07T03:35:39;101471.59;;;4.08;86.93
74778;BME280;63298;53.164;8.610;2022-12-07T03:38:21;101470.38;;;4.11;87.07
74778;BME280;63298;53.164;8.610;2022-12-07T03:41:16;101472.25;;;4.10;87.24
74778;BME280;63298;53.164;8.610;2022-12-07T03:43:44;101472.25;;;4.10;86.91
74778;BME280;63298;53.164;8.610;2022-12-07T03:46:20;101466.31;;;4.07;87.70
74778;BME280;63298;53.164;8.610;2022-12-07T03:54:40;101438.66;;;4.10;87.47
74778;BME280;63298;53.164;8.610;2022-12-07T03:57:10;101445.66;;;4.12;87.03
74778;BME280;63298;53.164;8.610;2022-12-07T03:59:38;101443.47;;;4.08;87.29
74778;BME280;63298;53.164;8.610;2022-12-07T04:02:06;101453.16;;;4.10;87.01
74778;BME280;63298;53.164;8.610;2022-12-07T04:04:32;101450.63;;;4.09;86.55
74778;BME280;63298;53.164;8.610;2022-12-07T04:07:01;101448.91;;;4.08;87.17
74778;BME280;63298;53.164;8.610;2022-12-07T04:09:27;101452.28;;;4.10;86.86
74778;BME280;63298;53.164;8.610;2022-12-07T04:11:53;101459.47;;;4.11;86.82
74778;BME280;63298;53.164;8.610;2022-12-07T04:14:18;101459.13;;;4.14;86.21
74778;BME280;63298;53.164;8.610;2022-12-07T04:16:48;101458.81;;;4.09;86.90
74778;BME280;63298;53.164;8.610;2022-12-07T04:19:14;101464.94;;;4.11;86.53
74778;BME280;63298;53.164;8.610;2022-12-07T04:21:40;101467.66;;;4.11;86.38
74778;BME280;63298;53.164;8.610;2022-12-07T04:24:05;101460.84;;;4.07;86.73
74778;BME280;63298;53.164;8.610;2022-12-07T04:26:31;101450.00;;;3.99;87.03
74778;BME280;63298;53.164;8.610;2022-12-07T04:28:56;101429.84;;;4.00;86.71
74778;BME280;63298;53.164;8.610;2022-12-07T04:31:22;101447.59;;;4.04;86.69
74778;BME280;63298;53.164;8.610;2022-12-07T04:33:47;101448.94;;;4.00;86.67
74778;BME280;63298;53.164;8.610;2022-12-07T04:36:12;101459.88;;;4.00;86.85
74778;BME280;63298;53.164;8.610;2022-12-07T04:38:38;101456.47;;;3.98;86.69
74778;BME280;63298;53.164;8.610;2022-12-07T04:41:07;101459.22;;;3.98;86.95
74778;BME280;63298;53.164;8.610;2022-12-07T04:43:33;101456.66;;;3.96;86.86
74778;BME280;63298;53.164;8.610;2022-12-07T04:45:58;101452.91;;;3.97;86.68
74778;BME280;63298;53.164;8.610;2022-12-07T04:48:24;101446.75;;;3.95;87.04
74778;BME280;63298;53.164;8.610;2022-12-07T04:50:49;101447.97;;;3.92;87.28
74778;BME280;63298;53.164;8.610;2022-12-07T04:53:14;101446.09;;;3.93;86.88
74778;BME280;63298;53.164;8.610;2022-12-07T04:55:40;101450.03;;;3.90;87.25
74778;BME280;63298;53.164;8.610;2022-12-07T04:58:05;101444.75;;;3.89;87.14
74778;BME280;63298;53.164;8.610;2022-12-07T05:00:30;101440.81;;;3.91;87.13
74778;BME280;63298;53.164;8.610;2022-12-07T05:02:56;101437.06;;;3.92;86.94
74778;BME280;63298;53.164;8.610;2022-12-07T05:05:21;101446.09;;;3.93;86.44
74778;BME280;63298;53.164;8.610;2022-12-07T05:07:46;101439.78;;;3.92;86.22
74778;BME280;63298;53.164;8.610;2022-12-07T05:10:12;101443.72;;;3.90;86.04
74778;BME280;63298;53.164;8.610;2022-12-07T05:12:37;101440.88;;;3.83;86.71
74778;BME280;63298;53.164;8.610;2022-12-07T05:15:03;101448.75;;;3.78;86.28
74778;BME280;63298;53.164;8.610;2022-12-07T05:17:28;101443.81;;;3.74;86.59
74778;BME280;63298;53.164;8.610;2022-12-07T05:19:53;101451.31;;;3.72;86.39
74778;BME280;63298;53.164;8.610;2022-12-07T05:22:19;101435.97;;;3.71;86.43
74778;BME280;63298;53.164;8.610;2022-12-07T05:24:44;101447.25;;;3.68;86.49
74778;BME280;63298;53.164;8.610;2022-12-07T05:27:09;101441.78;;;3.68;86.41
74778;BME280;63298;53.164;8.610;2022-12-07T05:29:35;101449.81;;;3.69;86.21
74778;BME280;63298;53.164;8.610;2022-12-07T05:32:00;101442.97;;;3.65;86.23
74778;BME280;63298;53.164;8.610;2022-12-07T05:34:25;101448.44;;;3.65;86.17
74778;BME280;63298;53.164;8.610;2022-12-07T05:36:51;101443.84;;;3.66;86.24
74778;BME280;63298;53.164;8.610;2022-12-07T05:39:16;101462.94;;;3.66;86.31
74778;BME280;63298;53.164;8.610;2022-12-07T05:41:41;101451.69;;;3.61;86.29
74778;BME280;63298;53.164;8.610;2022-12-07T05:44:07;101443.72;;;3.59;86.22
74778;BME280;63298;53.164;8.610;2022-12-07T05:46:32;101435.88;;;3.56;86.47
74778;BME280;63298;53.164;8.610;2022-12-07T05:48:58;101436.91;;;3.55;86.38
74778;BME280;63298;53.164;8.610;2022-12-07T05:51:23;101429.38;;;3.57;86.25
74778;BME280;63298;53.164;8.610;2022-12-07T05:53:48;101435.34;;;3.61;86.40
74778;BME280;63298;53.164;8.610;2022-12-07T05:56:14;101431.75;;;3.60;86.09
74778;BME280;63298;53.164;8.610;2022-12-07T05:58:39;101433.66;;;3.60;86.12
74778;BME280;63298;53.164;8.610;2022-12-07T06:01:04;101445.38;;;3.60;86.06
74778;BME280;63298;53.164;8.610;2022-12-07T06:03:30;101443.50;;;3.61;86.15
74778;BME280;63298;53.164;8.610;2022-12-07T06:05:55;101444.38;;;3.61;86.34
74778;BME280;63298;53.164;8.610;2022-12-07T06:08:20;101450.50;;;3.63;86.05
74778;BME280;63298;53.164;8.610;2022-12-07T06:10:47;101447.41;;;3.66;85.99
74778;BME280;63298;53.164;8.610;2022-12-07T06:13:12;101455.81;;;3.65;86.29
74778;BME280;63298;53.164;8.610;2022-12-07T06:15:37;101455.97;;;3.63;85.92
74778;BME280;63298;53.164;8.610;2022-12-07T06:18:03;101459.56;;;3.64;86.21
74778;BME280;63298;53.164;8.610;2022-12-07T06:20:28;101467.03;;;3.62;86.22
74778;BME280;63298;53.164;8.610;2022-12-07T06:22:54;101458.00;;;3.61;86.30
74778;BME280;63298;53.164;8.610;2022-12-07T06:25:19;101458.69;;;3.63;86.12
74778;BME280;63298;53.164;8.610;2022-12-07T06:27:44;101459.19;;;3.67;86.43
74778;BME280;63298;53.164;8.610;2022-12-07T06:30:10;101463.44;;;3.69;85.95
74778;BME280;63298;53.164;8.610;2022-12-07T06:32:36;101464.78;;;3.73;86.05
74778;BME280;63298;53.164;8.610;2022-12-07T06:35:01;101469.22;;;3.74;85.54
74778;BME280;63298;53.164;8.610;2022-12-07T06:37:27;101464.09;;;3.71;85.81
74778;BME280;63298;53.164;8.610;2022-12-07T06:39:52;101467.53;;;3.73;86.01
74778;BME280;63298;53.164;8.610;2022-12-07T06:42:17;101462.06;;;3.73;85.82
74778;BME280;63298;53.164;8.610;2022-12-07T06:44:43;101461.03;;;3.74;85.83
74778;BME280;63298;53.164;8.610;2022-12-07T06:47:08;101467.16;;;3.76;85.58
74778;BME280;63298;53.164;8.610;2022-12-07T06:49:33;101467.84;;;3.78;85.56
74778;BME280;63298;53.164;8.610;2022-12-07T06:51:59;101472.28;;;3.79;85.78
74778;BME280;63298;53.164;8.610;2022-12-07T06:54:24;101476.69;;;3.80;85.55
74778;BME280;63298;53.164;8.610;2022-12-07T06:56:50;101469.34;;;3.81;85.80
74778;BME280;63298;53.164;8.610;2022-12-07T06:59:15;101463.03;;;3.80;85.56
74778;BME280;63298;53.164;8.610;2022-12-07T07:01:40;101467.84;;;3.78;85.48
74778;BME280;63298;53.164;8.610;2022-12-07T07:04:06;101468.50;;;3.80;85.64
74778;BME280;63298;53.164;8.610;2022-12-07T07:06:31;101463.41;;;3.77;85.65
74778;BME280;63298;53.164;8.610;2022-12-07T07:08:57;101472.59;;;3.76;85.70
74778;BME280;63298;53.164;8.610;2022-12-07T07:11:22;101473.63;;;3.75;85.37
74778;BME280;63298;53.164;8.610;2022-12-07T07:13:47;101469.41;;;3.73;85.75
74778;BME280;63298;53.164;8.610;2022-12-07T07:16:13;101458.84;;;3.70;85.54
74778;BME280;63298;53.164;8.610;2022-12-07T07:18:38;101465.31;;;3.69;85.80
74778;BME280;63298;53.164;8.610;2022-12-07T07:21:03;101466.50;;;3.66;85.67
74778;BME280;63298;53.164;8.610;2022-12-07T07:23:29;101462.06;;;3.65;85.71
74778;BME280;63298;53.164;8.610;2022-12-07T07:25:55;101461.41;;;3.63;85.81
74778;BME280;63298;53.164;8.610;2022-12-07T07:28:20;101460.94;;;3.60;85.68
74778;BME280;63298;53.164;8.610;2022-12-07T07:30:46;101458.75;;;3.55;86.08
74778;BME280;63298;53.164;8.610;2022-12-07T07:33:11;101457.38;;;3.51;86.08
74778;BME280;63298;53.164;8.610;2022-12-07T07:35:36;101472.88;;;3.51;85.99
74778;BME280;63298;53.164;8.610;2022-12-07T07:38:02;101459.97;;;3.44;85.52
74778;BME280;63298;53.164;8.610;2022-12-07T07:40:28;101460.50;;;3.40;86.08
74778;BME280;63298;53.164;8.610;2022-12-07T07:42:54;101471.41;;;3.40;86.12
74778;BME280;63298;53.164;8.610;2022-12-07T07:45:21;101476.00;;;3.39;86.45
74778;BME280;63298;53.164;8.610;2022-12-07T07:47:47;101474.78;;;3.42;86.30
74778;BME280;63298;53.164;8.610;2022-12-07T07:50:12;101474.78;;;3.42;86.06
74778;BME280;63298;53.164;8.610;2022-12-07T07:52:38;101480.22;;;3.42;85.67
74778;BME280;63298;53.164;8.610;2022-12-07T07:55:03;101475.81;;;3.41;86.08
74778;BME280;63298;53.164;8.610;2022-12-07T07:57:29;101468.66;;;3.40;85.93
74778;BME280;63298;53.164;8.610;2022-12-07T07:59:54;101481.94;;;3.43;85.73
74778;BME280;63298;53.164;8.610;2022-12-07T08:02:20;101482.97;;;3.42;86.05
74778;BME280;63298;53.164;8.610;2022-12-07T08:04:46;101482.81;;;3.43;85.87
74778;BME280;63298;53.164;8.610;2022-12-07T08:07:12;101489.09;;;3.44;86.00
74778;BME280;63298;53.164;8.610;2022-12-07T08:09:38;101483.47;;;3.45;86.04
74778;BME280;63298;53.164;8.610;2022-12-07T08:12:03;101484.66;;;3.43;86.12
74778;BME280;63298;53.164;8.610;2022-12-07T08:14:29;101480.72;;;3.45;86.03
74778;BME280;63298;53.164;8.610;2022-12-07T08:16:57;101488.75;;;3.47;85.92
74778;BME280;63298;53.164;8.610;2022-12-07T08:19:22;101485.69;;;3.50;85.90
74778;BME280;63298;53.164;8.610;2022-12-07T08:21:48;101489.75;;;3.54;86.03
74778;BME280;63298;53.164;8.610;2022-12-07T08:24:14;101492.97;;;3.58;85.94
74778;BME280;63298;53.164;8.610;2022-12-07T08:26:40;101488.22;;;3.60;85.67
74778;BME280;63298;53.164;8.610;2022-12-07T08:29:05;101501.66;;;3.61;86.30
74778;BME280;63298;53.164;8.610;2022-12-07T08:31:31;101486.13;;;3.62;86.61
74778;BME280;63298;53.164;8.610;2022-12-07T08:33:56;101479.81;;;3.61;86.68
74778;BME280;63298;53.164;8.610;2022-12-07T08:36:21;101483.25;;;3.63;87.02
74778;BME280;63298;53.164;8.610;2022-12-07T08:38:47;101493.78;;;3.66;86.97
74778;BME280;63298;53.164;8.610;2022-12-07T08:41:12;101487.16;;;3.69;86.76
74778;BME280;63298;53.164;8.610;2022-12-07T08:43:37;101495.34;;;3.69;87.04
74778;BME280;63298;53.164;8.610;2022-12-07T08:46:10;101499.94;;;3.68;87.07
74778;BME280;63298;53.164;8.610;2022-12-07T08:48:46;101494.81;;;3.73;86.56
74778;BME280;63298;53.164;8.610;2022-12-07T08:51:14;101496.84;;;3.79;86.35
74778;BME280;63298;53.164;8.610;2022-12-07T08:53:40;101495.78;;;3.80;86.04
74778;BME280;63298;53.164;8.610;2022-12-07T08:56:07;101501.06;;;3.82;86.65
74778;BME280;63298;53.164;8.610;2022-12-07T08:58:33;101511.44;;;3.86;86.34
74778;BME280;63298;53.164;8.610;2022-12-07T09:01:00;101502.06;;;3.89;86.59
74778;BME280;63298;53.164;8.610;2022-12-07T09:03:25;101490.63;;;3.94;86.09
74778;BME280;63298;53.164;8.610;2022-12-07T09:05:53;101494.22;;;3.94;86.42
74778;BME280;63298;53.164;8.610;2022-12-07T09:08:19;101493.31;;;4.02;86.05
74778;BME280;63298;53.164;8.610;2022-12-07T09:10:44;101487.13;;;4.08;85.84
74778;BME280;63298;53.164;8.610;2022-12-07T09:13:10;101479.44;;;4.11;85.77
74778;BME280;63298;53.164;8.610;2022-12-07T09:15:35;101491.03;;;4.13;85.80
74778;BME280;63298;53.164;8.610;2022-12-07T09:18:00;101491.69;;;4.15;86.17
74778;BME280;63298;53.164;8.610;2022-12-07T09:20:26;101491.50;;;4.17;85.86
74778;BME280;63298;53.164;8.610;2022-12-07T09:22:51;101496.81;;;4.18;85.72
74778;BME280;63298;53.164;8.610;2022-12-07T09:25:16;101481.59;;;4.24;86.07
74778;BME280;63298;53.164;8.610;2022-12-07T09:27:42;101475.75;;;4.27;85.32
74778;BME280;63298;53.164;8.610;2022-12-07T09:30:07;101474.72;;;4.28;85.90
74778;BME280;63298;53.164;8.610;2022-12-07T09:32:33;101472.00;;;4.28;85.97
74778;BME280;63298;53.164;8.610;2022-12-07T09:34:58;101468.59;;;4.26;85.44
74778;BME280;63298;53.164;8.610;2022-12-07T09:37:24;101467.25;;;4.22;86.28
74778;BME280;63298;53.164;8.610;2022-12-07T09:39:49;101466.56;;;4.20;85.88
74778;BME280;63298;53.164;8.610;2022-12-07T09:42:28;101474.75;;;4.20;85.88
74778;BME280;63298;53.164;8.610;2022-12-07T09:44:55;101481.06;;;4.20;86.09
74778;BME280;63298;53.164;8.610;2022-12-07T09:47:20;101481.94;;;4.21;86.24
74778;BME280;63298;53.164;8.610;2022-12-07T09:49:46;101482.47;;;4.16;86.44
74778;BME280;63298;53.164;8.610;2022-12-07T09:54:41;101474.13;;;4.18;85.94
74778;BME280;63298;53.164;8.610;2022-12-07T09:57:11;101469.50;;;4.18;86.36
74778;BME280;63298;53.164;8.610;2022-12-07T09:59:36;101463.19;;;4.18;86.32
74778;BME280;63298;53.164;8.610;2022-12-07T10:02:24;101458.06;;;4.15;86.48
74778;BME280;63298;53.164;8.610;2022-12-07T10:04:50;101451.72;;;4.22;86.28
74778;BME280;63298;53.164;8.610;2022-12-07T10:07:15;101448.44;;;4.27;86.23
74778;BME280;63298;53.164;8.610;2022-12-07T10:09:41;101443.47;;;4.30;85.61
74778;BME280;63298;53.164;8.610;2022-12-07T10:12:08;101447.41;;;4.28;86.17
74778;BME280;63298;53.164;8.610;2022-12-07T10:14:36;101450.16;;;4.28;85.96
74778;BME280;63298;53.164;8.610;2022-12-07T10:17:03;101450.25;;;4.34;85.59
74778;BME280;63298;53.164;8.610;2022-12-07T10:19:48;101450.94;;;4.37;85.58
74778;BME280;63298;53.164;8.610;2022-12-07T10:22:15;101457.09;;;4.39;85.69
74778;BME280;63298;53.164;8.610;2022-12-07T10:24:43;101457.56;;;4.42;85.44
74778;BME280;63298;53.164;8.610;2022-12-07T10:27:26;101458.03;;;4.46;85.18
74778;BME280;63298;53.164;8.610;2022-12-07T10:29:54;101455.44;;;4.52;85.21
74778;BME280;63298;53.164;8.610;2022-12-07T10:34:45;101456.94;;;4.55;85.63
74778;BME280;63298;53.164;8.610;2022-12-07T10:42:21;101448.69;;;4.63;85.21
74778;BME280;63298;53.164;8.610;2022-12-07T10:44:48;101445.75;;;4.64;85.36
74778;BME280;63298;53.164;8.610;2022-12-07T10:59:15;101443.91;;;4.79;84.71
74778;BME280;63298;53.164;8.610;2022-12-07T11:07:35;101442.72;;;4.82;84.92
74778;BME280;63298;53.164;8.610;2022-12-07T11:10:18;101440.47;;;4.86;85.55
74778;BME280;63298;53.164;8.610;2022-12-07T11:15:28;101419.47;;;5.01;84.31
74778;BME280;63298;53.164;8.610;2022-12-07T11:18:18;101413.25;;;5.07;84.33
74778;BME280;63298;53.164;8.610;2022-12-07T11:23:40;101398.16;;;5.11;84.60
74778;BME280;63298;53.164;8.610;2022-12-07T11:31:27;101402.50;;;5.20;84.07
74778;BME280;63298;53.164;8.610;2022-12-07T11:34:00;101400.22;;;5.23;84.43
74778;BME280;63298;53.164;8.610;2022-12-07T11:36:44;101396.28;;;5.26;84.37
74778;BME280;63298;53.164;8.610;2022-12-07T11:42:42;101387.34;;;5.32;84.10
74778;BME280;63298;53.164;8.610;2022-12-07T11:44:55;101374.50;;;5.33;83.70
74778;BME280;63298;53.164;8.610;2022-12-07T11:47:45;101386.19;;;5.41;84.16
74778;BME280;63298;53.164;8.610;2022-12-07T11:53:01;101371.75;;;5.47;82.83
74778;BME280;63298;53.164;8.610;2022-12-07T11:58:57;101366.84;;;5.57;82.99
74778;BME280;63298;53.164;8.610;2022-12-07T12:06:38;101357.34;;;5.75;83.01
74778;BME280;63298;53.164;8.610;2022-12-07T12:09:15;101360.34;;;5.80;82.80
74778;BME280;63298;53.164;8.610;2022-12-07T12:14:53;101360.16;;;5.96;82.44
74778;BME280;63298;53.164;8.610;2022-12-07T12:23:12;101356.81;;;6.00;81.65
74778;BME280;63298;53.164;8.610;2022-12-07T12:25:45;101359.94;;;5.97;82.15
74778;BME280;63298;53.164;8.610;2022-12-07T12:28:35;101356.84;;;5.86;81.54
74778;BME280;63298;53.164;8.610;2022-12-07T12:31:10;101365.81;;;5.80;81.80
74778;BME280;63298;53.164;8.610;2022-12-07T12:33:37;101363.50;;;5.77;81.37
74778;BME280;63298;53.164;8.610;2022-12-07T12:44:38;101343.25;;;5.56;81.98
74778;BME280;63298;53.164;8.610;2022-12-07T12:47:02;101340.97;;;5.60;82.14
74778;BME280;63298;53.164;8.610;2022-12-07T12:51:54;101340.38;;;5.64;81.44
74778;BME280;63298;53.164;8.610;2022-12-07T12:54:27;101345.84;;;5.64;81.54
74778;BME280;63298;53.164;8.610;2022-12-07T12:57:00;101346.53;;;5.67;81.05
74778;BME280;63298;53.164;8.610;2022-12-07T12:59:30;101330.69;;;5.62;81.76
74778;BME280;63298;53.164;8.610;2022-12-07T13:02:07;101349.72;;;5.70;81.09
74778;BME280;63298;53.164;8.610;2022-12-07T13:04:39;101328.28;;;5.74;81.27
74778;BME280;63298;53.164;8.610;2022-12-07T13:07:11;101338.00;;;5.76;81.93
74778;BME280;63298;53.164;8.610;2022-12-07T13:09:42;101333.56;;;5.75;81.88
74778;BME280;63298;53.164;8.610;2022-12-07T13:12:14;101330.41;;;5.78;81.50
74778;BME280;63298;53.164;8.610;2022-12-07T13:14:59;101327.50;;;5.80;81.92
74778;BME280;63298;53.164;8.610;2022-12-07T13:19:56;101329.84;;;5.83;81.73
74778;BME280;63298;53.164;8.610;2022-12-07T13:22:43;101318.03;;;5.82;80.89
74778;BME280;63298;53.164;8.610;2022-12-07T13:25:22;101319.19;;;5.88;81.62
74778;BME280;63298;53.164;8.610;2022-12-07T13:27:57;101312.69;;;5.89;82.09
74778;BME280;63298;53.164;8.610;2022-12-07T13:30:26;101316.72;;;5.93;81.37
74778;BME280;63298;53.164;8.610;2022-12-07T13:32:58;101324.75;;;5.94;81.30
74778;BME280;63298;53.164;8.610;2022-12-07T13:35:53;101323.03;;;5.93;81.53
74778;BME280;63298;53.164;8.610;2022-12-07T13:38:28;101315.03;;;5.92;81.69
74778;BME280;63298;53.164;8.610;2022-12-07T13:41:14;101320.13;;;5.95;81.37
74778;BME280;63298;53.164;8.610;2022-12-07T13:44:08;101316.78;;;5.99;81.89
74778;BME280;63298;53.164;8.610;2022-12-07T13:49:31;101317.63;;;6.00;81.30
74778;BME280;63298;53.164;8.610;2022-12-07T13:52:17;101332.19;;;6.00;80.53
74778;BME280;63298;53.164;8.610;2022-12-07T13:54:46;101327.03;;;5.91;81.36
74778;BME280;63298;53.164;8.610;2022-12-07T13:57:17;101324.56;;;5.81;81.39
74778;BME280;63298;53.164;8.610;2022-12-07T13:59:43;101319.41;;;5.72;81.19
74778;BME280;63298;53.164;8.610;2022-12-07T14:02:21;101329.53;;;5.71;81.62
74778;BME280;63298;53.164;8.610;2022-12-07T14:04:49;101314.72;;;5.65;81.57
74778;BME280;63298;53.164;8.610;2022-12-07T14:07:26;101316.16;;;5.61;81.58
74778;BME280;63298;53.164;8.610;2022-12-07T14:12:20;101313.13;;;5.56;81.72
74778;BME280;63298;53.164;8.610;2022-12-07T14:14:49;101312.66;;;5.53;81.95
74778;BME280;63298;53.164;8.610;2022-12-07T14:17:20;101313.63;;;5.45;81.16
74778;BME280;63298;53.164;8.610;2022-12-07T14:19:56;101314.66;;;5.44;81.50
74778;BME280;63298;53.164;8.610;2022-12-07T14:22:32;101313.63;;;5.45;81.52
74778;BME280;63298;53.164;8.610;2022-12-07T14:25:18;101316.50;;;5.37;82.02
74778;BME280;63298;53.164;8.610;2022-12-07T14:28:02;101323.00;;;5.36;81.97
74778;BME280;63298;53.164;8.610;2022-12-07T14:30:29;101318.09;;;5.32;81.63
74778;BME280;63298;53.164;8.610;2022-12-07T14:33:04;101313.56;;;5.24;81.00
74778;BME280;63298;53.164;8.610;2022-12-07T14:35:30;101309.34;;;5.21;81.73
74778;BME280;63298;53.164;8.610;2022-12-07T14:37:56;101309.63;;;5.12;81.91
74778;BME280;63298;53.164;8.610;2022-12-07T14:40:27;101315.47;;;5.09;81.75
74778;BME280;63298;53.164;8.610;2022-12-07T14:43:02;101308.03;;;5.03;81.91
74778;BME280;63298;53.164;8.610;2022-12-07T14:45:29;101301.06;;;5.00;81.90
74778;BME280;63298;53.164;8.610;2022-12-07T14:47:54;101298.50;;;4.99;81.57
74778;BME280;63298;53.164;8.610;2022-12-07T14:50:21;101302.88;;;4.93;82.37
74778;BME280;63298;53.164;8.610;2022-12-07T14:52:55;101308.50;;;4.92;81.87
74778;BME280;63298;53.164;8.610;2022-12-07T14:55:28;101308.69;;;4.90;81.32